KJAN

Jackson-Medger Wiley Evers International Airport

Airport
ICAO code
KJAN
IATA Code
JAN
Summary
ICAO Region
NAM
ICAO Territory
Location

Flowood, Mississippi

Serving
Jackson
Elevation
346 ft
Coordinates
32° 18' 36" N , 90° 4' 31" W
KCC
Airport LOS
Parallel Runway Operation
Metar
KJAN 142254Z 20013KT 10SM FEW120 27/11 A3003 RMK AO2 SLP167 T02670111

Jackson-Medger Wiley Evers International Airport is a public-use, joint civil-military (ANG) airport located 6 nm east of the central business district of Jackson, Mississippi, USA.

 

Airport map

Aerial View

SKYbrary Partners:

Safety knowledge contributed by: